Time;durP1;ratioP1;P1;durP2;ratioP2;P2;SDS_P1;SDS_P2;PMS_P1;PMS_P2;Temp;Humidity;BMP_temperature;BMP_pressure;BME280_temperature;BME280_humidity;BME280_pressure;Samples;Min_cycle;Max_cycle;Signal;HPM_P1;HPM_P2
2024/01/10 00:01:53;;;;;;;38.30;16.77;;;-5.10;99.90;;;;;;5015253;28;20443;-61
2024/01/10 00:04:20;;;;;;;29.77;15.97;;;-5.10;99.90;;;;;;5009924;28;20453;-63
2024/01/10 00:06:48;;;;;;;35.93;17.30;;;-5.10;99.90;;;;;;5014208;28;20455;-62
2024/01/10 00:09:17;;;;;;;26.23;13.80;;;-5.10;99.90;;;;;;5015325;28;20467;-63
2024/01/10 00:11:43;;;;;;;39.67;21.57;;;-5.10;99.90;;;;;;5014882;28;20444;-62
2024/01/10 00:14:10;;;;;;;33.90;14.53;;;-5.20;99.90;;;;;;5015307;28;20512;-62
2024/01/10 00:16:37;;;;;;;42.27;19.50;;;-5.20;99.90;;;;;;5014920;28;20468;-63
2024/01/10 00:19:04;;;;;;;32.70;17.10;;;-5.10;99.90;;;;;;5009428;28;20488;-60
2024/01/10 00:21:33;;;;;;;40.50;18.00;;;-5.10;99.90;;;;;;4994529;28;20454;-62
2024/01/10 00:24:00;;;;;;;31.30;18.97;;;-5.10;99.90;;;;;;4995796;28;20456;-61
2024/01/10 00:26:28;;;;;;;36.07;19.67;;;-5.10;99.90;;;;;;4995495;28;20472;-62
2024/01/10 00:28:54;;;;;;;29.33;16.30;;;-5.10;99.90;;;;;;5013896;28;20472;-60
2024/01/10 00:31:21;;;;;;;38.97;17.50;;;-5.10;99.90;;;;;;5014491;28;20434;-59
2024/01/10 00:33:48;;;;;;;30.20;14.57;;;-5.10;99.90;;;;;;5014726;28;20451;-62
2024/01/10 00:36:15;;;;;;;31.93;17.57;;;-5.10;99.90;;;;;;5014883;28;20546;-63
2024/01/10 00:38:42;;;;;;;31.83;16.00;;;-5.10;99.90;;;;;;5015069;28;20490;-64
2024/01/10 00:41:09;;;;;;;40.33;19.60;;;-5.10;99.90;;;;;;5014334;28;20937;-62
2024/01/10 00:43:37;;;;;;;52.90;17.47;;;-5.10;99.90;;;;;;5014590;28;20455;-62
2024/01/10 00:46:04;;;;;;;45.10;19.93;;;-5.10;99.90;;;;;;5014462;28;20432;-62
2024/01/10 00:48:33;;;;;;;36.30;15.13;;;-5.10;99.90;;;;;;5014834;28;20452;-62
2024/01/10 00:51:00;;;;;;;31.77;16.73;;;-5.10;99.90;;;;;;5015442;28;20479;-62
2024/01/10 00:53:27;;;;;;;28.87;15.80;;;-5.10;99.90;;;;;;5015527;28;20442;-64
2024/01/10 00:55:54;;;;;;;35.73;18.97;;;-5.10;99.90;;;;;;5015372;28;20491;-63
2024/01/10 00:58:21;;;;;;;25.57;13.30;;;-5.20;99.90;;;;;;5014901;28;20480;-62
2024/01/10 01:00:49;;;;;;;37.47;17.57;;;-5.20;99.90;;;;;;5016347;28;20445;-59
2024/01/10 01:03:16;;;;;;;28.13;16.27;;;-5.20;99.90;;;;;;5016451;28;20484;-61
2024/01/10 01:05:43;;;;;;;36.10;18.90;;;-5.20;99.90;;;;;;5016621;28;20476;-62
2024/01/10 01:08:10;;;;;;;41.00;15.13;;;-5.20;99.90;;;;;;5016390;28;20495;-61
2024/01/10 01:10:36;;;;;;;25.67;14.83;;;-5.20;99.90;;;;;;5016146;28;20448;-61
2024/01/10 01:13:04;;;;;;;38.63;20.50;;;-5.20;99.90;;;;;;5018235;28;20459;-61
2024/01/10 01:15:30;;;;;;;38.87;17.10;;;-5.20;99.90;;;;;;5017704;28;20472;-62
2024/01/10 01:17:59;;;;;;;44.77;20.93;;;-5.30;99.90;;;;;;5017757;28;20527;-63
2024/01/10 01:20:25;;;;;;;30.87;16.77;;;-5.10;99.90;;;;;;5017549;28;20453;-63
2024/01/10 01:22:52;;;;;;;38.70;16.80;;;-5.20;99.90;;;;;;5017103;28;20471;-62
2024/01/10 01:25:19;;;;;;;43.97;20.33;;;-5.20;99.90;;;;;;5017065;28;20479;-61
2024/01/10 01:27:46;;;;;;;33.60;15.53;;;-5.20;99.90;;;;;;5018088;28;20451;-62
2024/01/10 01:30:13;;;;;;;39.40;20.47;;;-5.20;99.90;;;;;;5017206;28;20472;-63
2024/01/10 01:32:41;;;;;;;38.60;19.73;;;-5.30;99.90;;;;;;5017982;28;20453;-63
2024/01/10 01:35:09;;;;;;;50.10;18.67;;;-5.30;99.90;;;;;;5016981;28;20483;-63
2024/01/10 01:37:38;;;;;;;37.27;16.80;;;-5.20;99.90;;;;;;5018028;28;20436;-63
2024/01/10 01:40:06;;;;;;;43.63;21.33;;;-5.20;99.90;;;;;;5017756;28;20473;-60
2024/01/10 01:42:33;;;;;;;35.60;20.73;;;-5.20;99.90;;;;;;5017001;28;20478;-63
2024/01/10 01:45:00;;;;;;;36.00;18.80;;;-5.20;99.90;;;;;;5017495;28;20481;-60
2024/01/10 01:47:27;;;;;;;33.93;20.80;;;-5.10;99.90;;;;;;5017410;28;20447;-63
2024/01/10 01:49:54;;;;;;;37.97;18.57;;;-5.20;99.90;;;;;;5017394;28;20467;-62
2024/01/10 01:52:23;;;;;;;36.80;20.67;;;-5.20;99.90;;;;;;5017119;28;20448;-64
2024/01/10 01:54:52;;;;;;;36.77;17.07;;;-4.90;99.90;;;;;;5016887;28;20454;-61
2024/01/10 01:57:19;;;;;;;43.97;19.60;;;-5.10;99.90;;;;;;5017238;28;20477;-63
2024/01/10 01:59:46;;;;;;;48.33;21.03;;;-5.00;99.90;;;;;;5017509;28;20503;-61
2024/01/10 02:02:15;;;;;;;35.60;18.47;;;-5.10;99.90;;;;;;5017579;28;20476;-60
2024/01/10 02:04:43;;;;;;;28.67;15.03;;;-5.20;99.90;;;;;;5017549;28;20437;-63
2024/01/10 02:07:10;;;;;;;42.70;20.20;;;-5.20;99.90;;;;;;5017286;28;20467;-61
2024/01/10 02:09:38;;;;;;;45.37;19.90;;;-5.20;99.90;;;;;;5017477;28;20483;-62
2024/01/10 02:12:06;;;;;;;27.97;13.97;;;-5.10;99.90;;;;;;5017586;28;20471;-63
2024/01/10 02:14:31;;;;;;;29.93;15.70;;;-5.10;99.90;;;;;;5017036;28;20487;-60
2024/01/10 02:16:58;;;;;;;30.20;18.23;;;-5.10;99.90;;;;;;5016634;28;20444;-62
2024/01/10 02:19:26;;;;;;;51.43;20.90;;;-5.10;99.90;;;;;;5016652;28;20507;-62
2024/01/10 02:21:53;;;;;;;43.90;20.97;;;-5.10;99.90;;;;;;5016223;28;20511;-62
2024/01/10 02:24:20;;;;;;;69.67;25.20;;;-5.20;99.90;;;;;;5016948;28;20455;-62
2024/01/10 02:26:49;;;;;;;32.47;16.33;;;-5.10;99.90;;;;;;5016478;28;20452;-60
2024/01/10 02:29:16;;;;;;;26.03;13.87;;;-5.20;99.90;;;;;;5017210;28;20475;-62
2024/01/10 02:31:44;;;;;;;38.37;15.33;;;-5.20;99.90;;;;;;5016641;28;20443;-63
2024/01/10 02:34:10;;;;;;;34.43;17.97;;;-5.20;99.90;;;;;;5016574;28;20469;-62
2024/01/10 02:36:37;;;;;;;35.93;19.07;;;-4.10;99.90;;;;;;5016596;28;20911;-63
2024/01/10 02:39:04;;;;;;;29.83;16.13;;;-5.30;99.90;;;;;;5016482;28;20483;-63
2024/01/10 02:41:31;;;;;;;45.27;18.57;;;-5.30;99.90;;;;;;5016655;28;20440;-63
2024/01/10 02:44:00;;;;;;;49.73;18.87;;;-5.30;99.90;;;;;;5015751;28;20458;-62
2024/01/10 02:46:28;;;;;;;35.83;17.67;;;-5.30;99.90;;;;;;5016244;28;20917;-63
2024/01/10 02:48:56;;;;;;;25.40;13.47;;;-5.30;99.90;;;;;;5016913;28;20540;-65
2024/01/10 02:51:23;;;;;;;42.27;18.07;;;-4.30;99.90;;;;;;5017187;28;20434;-61
2024/01/10 02:53:50;;;;;;;39.87;18.33;;;-5.20;99.90;;;;;;5015948;28;20463;-61
2024/01/10 02:56:17;;;;;;;41.23;17.77;;;-5.40;99.90;;;;;;5010832;28;20469;-63
2024/01/10 02:58:43;;;;;;;41.90;21.07;;;-5.40;99.90;;;;;;4999384;28;20491;-63
2024/01/10 03:01:12;;;;;;;54.50;21.03;;;-5.30;99.90;;;;;;5005536;28;20448;-62
2024/01/10 03:03:38;;;;;;;32.80;18.87;;;-5.30;99.90;;;;;;5007930;28;20451;-63
2024/01/10 03:06:06;;;;;;;34.43;16.13;;;-5.30;99.90;;;;;;5016473;28;20451;-62
2024/01/10 03:08:32;;;;;;;56.83;21.67;;;-5.30;99.90;;;;;;5010331;28;20487;-63
2024/01/10 03:10:59;;;;;;;32.87;17.07;;;-5.20;99.90;;;;;;5007872;28;20458;-64
2024/01/10 03:13:26;;;;;;;48.07;21.63;;;-5.30;99.90;;;;;;5003625;28;20429;-63
2024/01/10 03:15:53;;;;;;;39.77;19.40;;;-5.20;99.90;;;;;;5006743;28;20466;-64
2024/01/10 03:18:21;;;;;;;28.60;14.57;;;-5.20;99.90;;;;;;5004993;28;20458;-61
2024/01/10 03:20:48;;;;;;;53.70;21.70;;;-5.20;99.90;;;;;;5002822;28;20413;-62
2024/01/10 03:23:15;;;;;;;27.63;16.67;;;-5.20;99.90;;;;;;5000365;28;20477;-62
2024/01/10 03:25:41;;;;;;;35.33;16.80;;;-5.20;99.90;;;;;;4996787;28;20476;-58
2024/01/10 03:28:08;;;;;;;44.00;19.43;;;-5.20;99.90;;;;;;4997265;28;20480;-63
2024/01/10 03:30:36;;;;;;;41.33;20.73;;;-5.20;99.90;;;;;;4996457;28;20424;-63
2024/01/10 03:33:02;;;;;;;40.70;20.43;;;-5.20;99.90;;;;;;4996995;28;20507;-63
2024/01/10 03:35:32;;;;;;;44.63;17.67;;;-5.20;99.90;;;;;;4997309;28;20464;-62
2024/01/10 03:37:59;;;;;;;40.20;15.10;;;-5.20;99.90;;;;;;5011574;28;20474;-59
2024/01/10 03:40:26;;;;;;;40.20;20.63;;;-5.20;99.90;;;;;;5016706;28;20444;-62
2024/01/10 03:42:53;;;;;;;39.93;18.27;;;-5.20;99.90;;;;;;5016608;28;20457;-61
2024/01/10 03:45:22;;;;;;;33.67;17.53;;;-5.20;99.90;;;;;;5016908;28;20447;-62
2024/01/10 03:47:51;;;;;;;40.23;18.80;;;-5.20;99.90;;;;;;5016453;28;20476;-61
2024/01/10 03:50:18;;;;;;;38.97;19.13;;;-5.30;99.90;;;;;;5015584;28;20457;-61
2024/01/10 03:52:47;;;;;;;36.10;17.93;;;-5.30;99.90;;;;;;5016013;28;20455;-62
2024/01/10 03:55:15;;;;;;;56.73;23.20;;;-5.20;99.90;;;;;;5015147;28;20499;-60
2024/01/10 03:57:42;;;;;;;35.27;18.73;;;-5.20;99.90;;;;;;5015953;28;20448;-62
2024/01/10 04:00:10;;;;;;;37.00;19.43;;;-5.20;99.90;;;;;;5016027;28;20561;-61
2024/01/10 04:02:38;;;;;;;29.97;14.97;;;-5.10;99.90;;;;;;5016088;28;20463;-63
2024/01/10 04:05:08;;;;;;;37.70;19.03;;;-5.10;99.90;;;;;;5017178;28;20475;-63
2024/01/10 04:07:35;;;;;;;38.87;22.47;;;-5.10;99.90;;;;;;5016343;28;20419;-62
2024/01/10 04:10:04;;;;;;;50.77;19.87;;;-5.20;99.90;;;;;;5015768;28;20446;-62
2024/01/10 04:12:31;;;;;;;34.07;17.77;;;-5.20;99.90;;;;;;5016514;28;20498;-62
2024/01/10 04:14:58;;;;;;;30.83;12.37;;;-5.20;99.90;;;;;;5016196;28;20444;-61
2024/01/10 04:17:25;;;;;;;44.13;18.37;;;-5.10;99.90;;;;;;5016398;28;20460;-60
2024/01/10 04:19:52;;;;;;;30.40;17.97;;;-5.20;99.90;;;;;;5015640;28;20519;-62
2024/01/10 04:22:18;;;;;;;37.70;17.67;;;-5.10;99.90;;;;;;5015397;28;20447;-61
2024/01/10 04:24:45;;;;;;;27.50;14.87;;;-5.10;99.90;;;;;;5015788;28;20473;-60
2024/01/10 04:27:13;;;;;;;33.70;16.37;;;-5.10;99.90;;;;;;5015817;28;20474;-61
2024/01/10 04:29:40;;;;;;;31.23;15.47;;;-5.10;99.90;;;;;;5015792;28;20920;-63
2024/01/10 04:32:07;;;;;;;40.90;16.00;;;-5.10;99.90;;;;;;5015726;28;20431;-60
2024/01/10 04:34:34;;;;;;;40.87;16.70;;;-5.10;99.90;;;;;;5016652;28;20455;-60
2024/01/10 04:37:01;;;;;;;32.57;15.90;;;-5.10;99.90;;;;;;5016032;28;20483;-62
2024/01/10 04:39:28;;;;;;;42.83;20.10;;;-5.20;99.90;;;;;;5015535;28;20490;-61
2024/01/10 04:41:55;;;;;;;31.30;15.57;;;-5.20;99.90;;;;;;5015806;28;20463;-62
2024/01/10 04:44:24;;;;;;;34.80;16.33;;;-5.10;99.90;;;;;;5012490;28;20467;-62
2024/01/10 04:46:50;;;;;;;35.03;16.40;;;-5.10;99.90;;;;;;5018301;28;20436;-62
2024/01/10 04:49:17;;;;;;;18.53;13.13;;;-5.10;99.90;;;;;;5019298;28;20457;-61
2024/01/10 04:51:45;;;;;;;22.17;13.87;;;-4.00;99.90;;;;;;5018289;28;20468;-61
2024/01/10 04:54:12;;;;;;;20.90;13.67;;;-5.10;99.90;;;;;;5016680;28;20475;-61
2024/01/10 04:56:39;;;;;;;47.83;22.13;;;-5.20;99.90;;;;;;5018793;28;20466;-60
2024/01/10 04:59:06;;;;;;;40.97;11.27;;;-5.20;99.90;;;;;;5019355;28;20489;-62
2024/01/10 05:01:36;;;;;;;31.50;15.87;;;-5.20;99.90;;;;;;5018969;28;20502;-60
2024/01/10 05:04:04;;;;;;;36.50;15.33;;;-5.30;99.90;;;;;;5019643;28;20474;-60
2024/01/10 05:06:32;;;;;;;29.87;12.70;;;-5.30;99.90;;;;;;5020152;28;20444;-61
2024/01/10 05:08:58;;;;;;;12.07;8.50;;;-5.30;99.90;;;;;;5019715;28;20451;-62
2024/01/10 05:11:26;;;;;;;39.57;17.37;;;-5.40;99.90;;;;;;5018821;28;20445;-59
2024/01/10 05:13:53;;;;;;;40.27;18.67;;;-5.40;99.90;;;;;;5019227;28;20466;-61
2024/01/10 05:16:20;;;;;;;24.07;13.00;;;-5.50;99.90;;;;;;5019243;28;20507;-62
2024/01/10 05:18:48;;;;;;;20.93;14.37;;;-5.50;99.90;;;;;;5018332;28;20488;-61
2024/01/10 05:21:15;;;;;;;25.80;10.80;;;-5.30;99.90;;;;;;5019102;28;20429;-62
2024/01/10 05:23:42;;;;;;;29.57;18.00;;;-5.50;99.90;;;;;;5018783;28;20453;-58
2024/01/10 05:26:09;;;;;;;29.97;18.10;;;-5.50;99.90;;;;;;5018748;28;20471;-61
2024/01/10 05:28:36;;;;;;;44.60;18.80;;;-5.50;99.90;;;;;;5019323;28;20460;-62
2024/01/10 05:31:03;;;;;;;49.30;16.93;;;-5.50;99.90;;;;;;5018847;28;20449;-62
2024/01/10 05:33:30;;;;;;;42.53;21.57;;;-5.50;99.90;;;;;;5018843;28;20439;-62
2024/01/10 05:35:59;;;;;;;30.60;12.80;;;-5.50;99.90;;;;;;5018650;28;20444;-62
2024/01/10 05:38:25;;;;;;;64.93;19.47;;;-5.50;99.90;;;;;;5017228;28;20479;-60
2024/01/10 05:40:52;;;;;;;37.07;18.67;;;-5.50;99.90;;;;;;5018364;28;20520;-59
2024/01/10 05:43:19;;;;;;;26.80;15.43;;;-5.40;99.90;;;;;;5018746;28;20507;-63
2024/01/10 05:45:51;;;;;;;30.83;17.30;;;-5.40;99.90;;;;;;5018546;28;20432;-62
2024/01/10 05:48:17;;;;;;;50.63;16.60;;;-5.50;99.90;;;;;;5017298;28;20472;-60
2024/01/10 05:50:44;;;;;;;42.20;17.70;;;-5.50;99.90;;;;;;5017806;28;20470;-62
2024/01/10 05:53:16;;;;;;;30.83;17.03;;;-5.40;99.90;;;;;;5017512;28;20449;-59
2024/01/10 05:55:43;;;;;;;40.07;17.20;;;-5.40;99.90;;;;;;5017018;28;20517;-62
2024/01/10 05:58:10;;;;;;;39.87;16.67;;;-5.40;99.90;;;;;;5018370;28;20431;-60
2024/01/10 06:00:37;;;;;;;32.80;16.97;;;-5.40;99.90;;;;;;5018851;28;20477;-62
2024/01/10 06:03:05;;;;;;;54.97;22.43;;;-5.40;99.90;;;;;;5017765;28;20461;-59
2024/01/10 06:05:32;;;;;;;33.17;18.93;;;-5.50;99.90;;;;;;5017067;28;20467;-61
2024/01/10 06:07:59;;;;;;;44.13;19.03;;;-5.40;99.90;;;;;;5016437;28;20489;-62
2024/01/10 06:10:29;;;;;;;31.00;16.17;;;-5.40;99.90;;;;;;5017815;28;20431;-62
2024/01/10 06:12:56;;;;;;;42.30;19.93;;;-5.30;99.90;;;;;;5018031;28;20479;-62
2024/01/10 06:15:23;;;;;;;40.80;16.13;;;-5.30;99.90;;;;;;5017548;28;20554;-63
2024/01/10 06:17:50;;;;;;;46.13;18.83;;;-5.30;99.90;;;;;;5017751;28;20494;-61
2024/01/10 06:20:18;;;;;;;31.30;17.00;;;-5.30;99.90;;;;;;5017212;28;20477;-62
2024/01/10 06:22:47;;;;;;;38.43;17.20;;;-5.40;99.90;;;;;;5018014;28;20471;-58
2024/01/10 06:25:15;;;;;;;42.90;18.97;;;-5.30;99.90;;;;;;5017209;28;20471;-60
2024/01/10 06:27:43;;;;;;;28.47;12.93;;;-5.40;99.90;;;;;;5016646;28;20511;-63
2024/01/10 06:30:11;;;;;;;46.03;17.00;;;-5.40;99.90;;;;;;5017334;28;20443;-62
2024/01/10 06:32:38;;;;;;;47.07;18.43;;;-5.50;99.90;;;;;;5015811;28;20523;-62
2024/01/10 06:35:05;;;;;;;38.03;17.50;;;-5.50;99.90;;;;;;5017166;28;20456;-64
2024/01/10 06:37:32;;;;;;;30.80;16.93;;;-5.50;99.90;;;;;;5016854;28;20629;-61
2024/01/10 06:39:59;;;;;;;43.40;17.17;;;-5.50;99.90;;;;;;5016777;28;20985;-61
2024/01/10 06:42:31;;;;;;;26.60;14.80;;;-5.50;99.90;;;;;;5017587;28;20456;-62
2024/01/10 06:44:59;;;;;;;47.83;19.60;;;-5.50;99.90;;;;;;5017275;28;20476;-61
2024/01/10 06:47:26;;;;;;;32.50;17.73;;;-5.50;99.90;;;;;;5017178;28;20451;-63
2024/01/10 06:49:53;;;;;;;30.23;16.83;;;-5.50;99.90;;;;;;5016535;28;20471;-59
2024/01/10 06:52:20;;;;;;;36.07;18.83;;;-5.40;99.90;;;;;;5016064;28;20501;-62
2024/01/10 06:54:46;;;;;;;37.80;19.60;;;-5.40;99.90;;;;;;5016180;28;20743;-61
2024/01/10 06:57:13;;;;;;;29.93;17.00;;;-5.40;99.90;;;;;;5016544;28;20827;-62
2024/01/10 06:59:40;;;;;;;41.63;22.93;;;-5.30;99.90;;;;;;5016781;28;20684;-63
2024/01/10 07:02:08;;;;;;;32.77;19.00;;;-5.30;99.90;;;;;;5015860;28;20477;-62
2024/01/10 07:04:38;;;;;;;49.97;19.20;;;-5.30;99.90;;;;;;5013713;28;20484;-64
2024/01/10 07:07:08;;;;;;;42.57;20.87;;;-5.30;99.90;;;;;;5016305;28;20453;-60
2024/01/10 07:09:35;;;;;;;45.97;15.20;;;-5.30;99.90;;;;;;5016146;28;20497;-60
2024/01/10 07:12:04;;;;;;;46.57;19.97;;;-5.30;99.90;;;;;;5016594;28;20443;-62
2024/01/10 07:14:30;;;;;;;35.80;17.37;;;-5.30;99.90;;;;;;5016200;28;20478;-61
2024/01/10 07:16:57;;;;;;;37.80;20.20;;;-5.40;99.90;;;;;;5008383;28;20441;-61
2024/01/10 07:19:25;;;;;;;32.57;18.50;;;-5.40;99.90;;;;;;5007955;28;20520;-62
2024/01/10 07:21:54;;;;;;;53.90;25.03;;;-5.40;99.90;;;;;;5015281;28;20471;-61
2024/01/10 07:24:21;;;;;;;29.90;15.80;;;-5.40;99.90;;;;;;5002315;28;20464;-63
2024/01/10 07:26:48;;;;;;;30.67;20.13;;;-5.40;99.90;;;;;;5003507;28;20464;-62
2024/01/10 07:29:14;;;;;;;34.83;17.30;;;-5.40;99.90;;;;;;5016579;28;20958;-60
2024/01/10 07:31:41;;;;;;;34.33;15.03;;;-5.40;99.90;;;;;;5006115;28;20452;-59
2024/01/10 07:34:08;;;;;;;25.50;17.30;;;-5.30;99.90;;;;;;5015199;28;20501;-61
2024/01/10 07:36:43;;;;;;;38.97;17.20;;;-5.40;99.90;;;;;;5011525;28;20463;-65
2024/01/10 07:39:10;;;;;;;40.07;14.23;;;-5.30;99.90;;;;;;5004175;28;20469;-62
2024/01/10 07:41:40;;;;;;;36.97;19.93;;;-5.30;99.90;;;;;;5005771;28;20439;-59
2024/01/10 07:44:09;;;;;;;39.67;16.10;;;-5.30;99.90;;;;;;5008814;28;20458;-61
2024/01/10 07:46:37;;;;;;;30.50;18.07;;;-5.30;99.90;;;;;;5013305;28;20472;-61
2024/01/10 07:49:04;;;;;;;46.40;19.40;;;-5.30;99.90;;;;;;5013630;28;20456;-59
2024/01/10 07:51:45;;;;;;;33.27;18.53;;;-5.40;99.90;;;;;;5004922;28;20425;-61
2024/01/10 07:54:12;;;;;;;38.77;17.63;;;-4.90;99.90;;;;;;5011171;28;20450;-58
2024/01/10 07:56:39;;;;;;;43.43;18.10;;;-5.30;99.90;;;;;;5015135;28;20486;-61
2024/01/10 07:59:08;;;;;;;49.67;20.67;;;-5.20;99.90;;;;;;5013771;28;20479;-61
2024/01/10 08:01:37;;;;;;;37.57;19.57;;;-5.20;99.90;;;;;;5004612;28;20485;-62
2024/01/10 08:04:05;;;;;;;51.43;18.07;;;-5.20;99.90;;;;;;5010527;28;20483;-62
2024/01/10 08:06:32;;;;;;;44.53;22.13;;;-5.10;99.90;;;;;;5008741;28;20994;-63
2024/01/10 08:09:00;;;;;;;34.57;19.23;;;-5.10;99.90;;;;;;5006529;28;20460;-60
2024/01/10 08:11:27;;;;;;;59.97;19.57;;;-5.00;99.90;;;;;;4995727;28;20444;-62
2024/01/10 08:13:55;;;;;;;36.90;19.03;;;-5.00;99.90;;;;;;5002268;28;20489;-61
2024/01/10 08:16:22;;;;;;;37.27;20.50;;;-5.00;99.90;;;;;;5014550;28;20475;-62
2024/01/10 08:18:51;;;;;;;41.77;20.77;;;-5.00;99.90;;;;;;5013463;28;20496;-64
2024/01/10 08:21:19;;;;;;;53.37;21.97;;;-4.90;99.90;;;;;;5018133;28;20530;-63
2024/01/10 08:23:47;;;;;;;43.27;21.17;;;-4.90;99.90;;;;;;5018151;28;20478;-61
2024/01/10 08:26:15;;;;;;;49.67;23.40;;;-4.80;99.90;;;;;;5018276;28;20464;-64
2024/01/10 08:28:42;;;;;;;45.50;20.90;;;-4.90;99.90;;;;;;5017638;28;20458;-61
2024/01/10 08:31:09;;;;;;;39.77;18.57;;;-4.80;99.90;;;;;;5016841;28;20466;-60
2024/01/10 08:33:36;;;;;;;35.60;21.80;;;-4.80;99.90;;;;;;5017052;28;20466;-60
2024/01/10 08:36:05;;;;;;;34.77;21.30;;;-4.80;99.90;;;;;;5017220;28;20452;-62
2024/01/10 08:38:32;;;;;;;46.97;20.47;;;-4.80;99.90;;;;;;5014358;28;20458;-61
2024/01/10 08:40:58;;;;;;;44.20;19.53;;;-4.70;99.90;;;;;;5008148;28;20481;-64
2024/01/10 08:43:27;;;;;;;43.57;22.17;;;-4.70;99.90;;;;;;5005978;28;20429;-59
2024/01/10 08:45:53;;;;;;;41.40;22.60;;;-4.60;99.90;;;;;;5006514;28;20450;-63
2024/01/10 08:48:20;;;;;;;46.80;24.20;;;-4.50;99.90;;;;;;5003050;28;20469;-64
2024/01/10 08:50:47;;;;;;;49.33;22.33;;;-4.60;99.90;;;;;;5009611;28;20459;-63
2024/01/10 08:53:16;;;;;;;36.20;17.00;;;-4.50;99.90;;;;;;5013461;28;20494;-64
2024/01/10 08:55:42;;;;;;;45.00;19.83;;;-4.50;99.90;;;;;;5005297;28;20464;-63
2024/01/10 08:58:09;;;;;;;46.80;17.87;;;-4.50;99.90;;;;;;5015235;28;20478;-63
2024/01/10 09:00:38;;;;;;;46.17;20.67;;;-4.40;99.90;;;;;;5016720;28;20476;-64
2024/01/10 09:03:05;;;;;;;40.93;20.03;;;-4.40;99.90;;;;;;5017066;28;20443;-60
2024/01/10 09:05:32;;;;;;;54.43;23.27;;;-4.30;99.90;;;;;;5011114;28;20453;-63
2024/01/10 09:08:00;;;;;;;52.60;21.13;;;-4.30;99.90;;;;;;5017330;28;20454;-63
2024/01/10 09:10:27;;;;;;;44.67;22.13;;;-4.30;99.90;;;;;;5015389;28;20455;-62
2024/01/10 09:12:55;;;;;;;37.43;19.00;;;-4.20;99.90;;;;;;5016473;28;20461;-63
2024/01/10 09:15:23;;;;;;;36.00;19.07;;;-4.20;99.90;;;;;;5017825;28;20471;-63
2024/01/10 09:17:52;;;;;;;56.27;21.20;;;-4.10;99.90;;;;;;5016005;28;20505;-61
2024/01/10 09:20:20;;;;;;;45.50;20.23;;;-4.00;99.90;;;;;;5031686;28;20506;-62
2024/01/10 09:22:47;;;;;;;52.07;24.80;;;-4.00;99.90;;;;;;5024802;28;20500;-62
2024/01/10 09:25:14;;;;;;;54.53;22.53;;;-4.00;99.90;;;;;;5016658;28;20468;-63
2024/01/10 09:27:43;;;;;;;52.87;21.67;;;-3.90;99.90;;;;;;5009554;28;20476;-64
2024/01/10 09:30:11;;;;;;;40.50;22.40;;;-3.90;99.90;;;;;;5016941;28;20457;-62
2024/01/10 09:32:38;;;;;;;43.77;21.27;;;-3.80;99.90;;;;;;5015714;28;20581;-63
2024/01/10 09:35:06;;;;;;;33.97;20.83;;;-3.70;99.90;;;;;;5016493;28;20428;-61
2024/01/10 09:37:36;;;;;;;43.57;18.27;;;-3.60;99.90;;;;;;5016590;28;20478;-60
2024/01/10 09:40:47;;;;;;;38.77;18.73;;;-3.50;99.90;;;;;;5018561;28;20420;-62
2024/01/10 09:43:59;;;;;;;;;;;;;;;;;;;;;
2024/01/10 09:46:49;;;;;;;39.80;20.03;;;-2.40;99.90;;;;;;5008570;28;20482;-62
2024/01/10 09:52:40;;;;;;;51.13;24.17;;;-0.90;99.90;;;;;;5011473;28;20467;-61
2024/01/10 09:55:09;;;;;;;43.37;20.10;;;-0.40;99.90;;;;;;5010653;28;20620;-62
2024/01/10 09:57:56;;;;;;;60.30;32.00;;;0.00;99.90;;;;;;5009265;28;20481;-65
2024/01/10 10:00:26;;;;;;;41.17;21.30;;;0.40;99.90;;;;;;5003216;28;20481;-63
2024/01/10 10:03:04;;;;;;;52.70;24.30;;;0.90;99.90;;;;;;4997528;28;20461;-66
2024/01/10 10:05:31;;;;;;;44.23;20.33;;;1.10;97.20;;;;;;4996599;28;20459;-61
2024/01/10 10:08:02;;;;;;;44.53;21.40;;;1.30;94.90;;;;;;5008990;28;20486;-66
2024/01/10 10:10:29;;;;;;;51.20;22.17;;;1.20;93.60;;;;;;5016775;28;20418;-63
2024/01/10 10:12:56;;;;;;;44.40;20.37;;;1.20;92.40;;;;;;5016736;28;20459;-60
2024/01/10 10:15:26;;;;;;;47.57;21.60;;;1.70;99.90;;;;;;5016223;28;20443;-65
2024/01/10 10:17:58;;;;;;;38.33;20.60;;;2.60;99.90;;;;;;5016501;28;20501;-63
2024/01/10 10:20:27;;;;;;;42.27;18.10;;;2.40;97.90;;;;;;5016825;28;20503;-62
2024/01/10 10:23:04;;;;;;;36.03;17.17;;;2.70;93.90;;;;;;5017678;28;20438;-64
2024/01/10 10:25:35;;;;;;;32.00;16.27;;;3.30;88.40;;;;;;5017907;28;20487;-63
2024/01/10 10:28:04;;;;;;;36.50;17.53;;;3.90;80.00;;;;;;5017195;28;20452;-65
2024/01/10 10:30:32;;;;;;;44.77;18.00;;;4.70;74.00;;;;;;5017067;28;20456;-65
2024/01/10 10:33:01;;;;;;;35.40;15.90;;;5.30;67.00;;;;;;5018449;28;20453;-61
2024/01/10 10:35:33;;;;;;;35.60;19.70;;;5.60;62.70;;;;;;5018069;28;20472;-60
2024/01/10 10:38:01;;;;;;;45.57;23.47;;;5.90;61.60;;;;;;5017801;28;20437;-62
2024/01/10 10:40:28;;;;;;;45.77;19.10;;;5.90;58.70;;;;;;5017715;28;20515;-61
2024/01/10 10:42:56;;;;;;;41.40;19.90;;;5.60;57.50;;;;;;5017055;28;20438;-62
2024/01/10 10:45:25;;;;;;;41.87;20.13;;;4.80;57.80;;;;;;5017439;28;20496;-63
2024/01/10 10:47:57;;;;;;;36.30;19.10;;;4.00;59.20;;;;;;5017590;28;20468;-64
2024/01/10 10:50:30;;;;;;;35.77;19.10;;;3.20;61.00;;;;;;5016721;28;20425;-63
2024/01/10 10:52:58;;;;;;;43.63;19.83;;;2.30;63.70;;;;;;5017133;28;20464;-65
2024/01/10 10:55:28;;;;;;;44.10;18.70;;;1.50;66.80;;;;;;5015668;28;20458;-62
2024/01/10 10:57:56;;;;;;;37.73;19.90;;;1.00;70.20;;;;;;5016059;28;20427;-64
2024/01/10 11:00:26;;;;;;;33.00;16.37;;;0.60;73.60;;;;;;5016073;28;20452;-64
2024/01/10 11:02:54;;;;;;;42.07;19.00;;;0.30;76.90;;;;;;5017070;28;20477;-63
2024/01/10 11:05:21;;;;;;;34.53;16.93;;;0.10;79.20;;;;;;5016809;28;20466;-61
2024/01/10 11:07:51;;;;;;;37.73;17.00;;;0.00;81.40;;;;;;5015951;28;20446;-63
2024/01/10 11:10:22;;;;;;;38.77;18.07;;;-0.20;83.80;;;;;;5016118;28;20472;-63
2024/01/10 11:13:03;;;;;;;33.97;18.10;;;0.50;87.10;;;;;;5016424;28;20430;-64
2024/01/10 11:15:55;;;;;;;35.63;16.77;;;-0.40;89.90;;;;;;5015985;28;20521;-62
2024/01/10 11:18:46;;;;;;;42.83;16.97;;;-0.60;91.50;;;;;;5016340;28;20477;-63
2024/01/10 11:21:25;;;;;;;37.03;18.13;;;-0.60;93.20;;;;;;5016107;28;20476;-60
2024/01/10 11:23:55;;;;;;;41.50;18.77;;;-0.70;94.70;;;;;;5015924;28;20480;-64
2024/01/10 11:26:22;;;;;;;42.13;18.87;;;-0.60;95.50;;;;;;5015797;28;20452;-63
2024/01/10 11:28:51;;;;;;;40.20;18.90;;;-0.50;95.80;;;;;;5015901;28;20449;-64
2024/01/10 11:31:30;;;;;;;47.83;20.07;;;-0.50;95.90;;;;;;5014927;28;20429;-61
2024/01/10 11:33:57;;;;;;;47.30;21.47;;;-0.50;95.90;;;;;;5016325;28;20449;-63
2024/01/10 11:36:26;;;;;;;26.73;14.70;;;-0.50;95.50;;;;;;5015934;28;20470;-63
2024/01/10 11:38:59;;;;;;;32.10;14.13;;;-0.50;94.90;;;;;;5016007;28;20481;-62
2024/01/10 11:41:31;;;;;;;40.10;16.73;;;-0.50;94.40;;;;;;5014815;28;20488;-64
2024/01/10 11:44:30;;;;;;;34.20;16.87;;;-0.50;94.30;;;;;;5015435;28;20441;-63
2024/01/10 11:46:59;;;;;;;39.00;17.10;;;-0.40;94.60;;;;;;5015595;28;20440;-64
2024/01/10 11:49:27;;;;;;;31.03;15.33;;;-0.40;94.40;;;;;;5015539;28;20444;-63
2024/01/10 11:51:56;;;;;;;28.03;16.73;;;-0.40;95.00;;;;;;5011466;28;20453;-62
2024/01/10 11:54:44;;;;;;;36.10;17.20;;;-0.40;95.30;;;;;;5004215;28;20465;-63
2024/01/10 11:57:19;;;;;;;33.90;13.63;;;-0.40;95.40;;;;;;5007928;28;20450;-61
2024/01/10 11:59:52;;;;;;;28.20;13.87;;;-0.30;94.70;;;;;;5007068;28;20446;-61
2024/01/10 12:02:35;;;;;;;40.93;17.33;;;-0.30;94.30;;;;;;4996737;28;20468;-64
2024/01/10 12:05:02;;;;;;;29.00;14.67;;;-0.30;93.80;;;;;;4996471;28;20484;-63
2024/01/10 12:07:29;;;;;;;37.63;16.33;;;-0.30;93.80;;;;;;4996832;28;20448;-66
2024/01/10 12:09:58;;;;;;;22.70;12.53;;;-0.20;93.70;;;;;;4996554;28;20466;-63
2024/01/10 12:12:25;;;;;;;34.07;12.80;;;-0.20;92.80;;;;;;4999224;28;20453;-65
2024/01/10 12:14:54;;;;;;;27.30;14.13;;;-0.10;92.20;;;;;;5001895;28;20483;-66
2024/01/10 12:17:24;;;;;;;31.83;13.97;;;-0.10;91.80;;;;;;5005186;28;20475;-64
2024/01/10 12:19:53;;;;;;;30.10;14.20;;;-0.10;91.10;;;;;;5005572;28;20452;-65
2024/01/10 12:22:20;;;;;;;32.20;15.27;;;0.00;90.60;;;;;;5004623;28;20535;-64
2024/01/10 12:24:49;;;;;;;23.27;13.20;;;0.00;89.90;;;;;;5016010;28;20437;-65
2024/01/10 12:27:20;;;;;;;29.53;14.00;;;0.10;89.90;;;;;;5010788;28;20475;-66
2024/01/10 12:29:50;;;;;;;33.30;15.30;;;0.10;88.30;;;;;;5012164;28;20449;-65
2024/01/10 12:32:22;;;;;;;28.10;13.60;;;0.20;88.30;;;;;;5007149;28;20481;-60
2024/01/10 12:34:49;;;;;;;18.30;12.83;;;0.20;88.10;;;;;;5011856;28;20466;-64
2024/01/10 12:37:16;;;;;;;39.67;15.67;;;0.30;87.70;;;;;;5007824;28;20426;-63
2024/01/10 12:39:43;;;;;;;23.77;12.90;;;0.30;85.50;;;;;;5007985;28;20488;-64